This is the latest recevied weather packets stored in our database for station/object KC0FGX-1. If no packets are shown the sender has not sent any weather packets the latest 10 day(s).
| Time | Temp. | Humidity | Pressure | Rain* | Wind** | Luminosity | Snow |
|---|---|---|---|---|---|---|---|
| 1777612614 | 6.11° C | 73% | 1016.7 hPa | 0 mm | - | - | - |
| 1777611825 | 6.11° C | 72% | 1016.5 hPa | 0 mm | - | - | - |
| 1777610825 | 6.67° C | 70% | 1016.4 hPa | 0 mm | - | - | - |
| 1777610813 | 6.67° C | 70% | 1016.4 hPa | 0 mm | - | - | - |
| 1777609825 | 7.22° C | 69% | 1016.5 hPa | 0 mm | - | - | - |
| 1777609013 | 7.22° C | 69% | 1016.4 hPa | 0 mm | - | - | - |
| 1777608825 | 7.22° C | 69% | 1016.3 hPa | 0 mm | - | - | - |
| 1777607825 | 7.78° C | 69% | 1016.3 hPa | 0 mm | - | - | - |
| 1777607213 | 7.78° C | 70% | 1016.3 hPa | 0 mm | - | - | - |
| 1777606826 | 7.22° C | 72% | 1016.3 hPa | 0 mm | - | - | - |
| 1777605827 | 5.56° C | 84% | 1016.2 hPa | 0 mm | - | - | - |
| 1777605413 | 6.11° C | 82% | 1016.1 hPa | 0 mm | - | - | - |
| 1777604825 | 6.11° C | 78% | 1016 hPa | 0 mm | - | - | - |
| 1777603825 | 7.22° C | 75% | 1016 hPa | 0 mm | - | - | - |
| 1777603615 | 7.78° C | 73% | 1015.9 hPa | 0 mm | - | - | - |
| 1777602825 | 7.78° C | 71% | 1015.8 hPa | 0 mm | - | - | - |
| 1777601825 | 8.89° C | 67% | 1015.6 hPa | 0 mm | - | - | - |
| 1777601813 | 8.89° C | 67% | 1015.6 hPa | 0 mm | - | - | - |
| 1777600823 | 9.44° C | 65% | 1015.3 hPa | 0 mm | - | - | - |
| 1777600012 | 10° C | 64% | 1015.1 hPa | 0 mm | - | - | - |
| 1777599824 | 10° C | 63% | 1015 hPa | 0 mm | - | - | - |
| 1777598824 | 10.56° C | 61% | 1014.9 hPa | 0 mm | - | - | - |
| 1777598212 | 11.11° C | 61% | 1014.8 hPa | 0 mm | - | - | - |
| 1777596823 | 11.67° C | 59% | 1014.5 hPa | 0 mm | - | - | - |
| 1777596411 | 11.67° C | 59% | 1014.5 hPa | 0 mm | - | - | - |
* Rain latest hour (hover to see other rain measurements)
** Current wind speed in m/s (hover to see current wind gust speed)